createdAt,value
2018-08-09T00:00:07.918Z,99723.10
2018-08-09T00:02:35.757Z,99718.58
2018-08-09T00:05:06.834Z,99712.19
2018-08-09T00:07:34.492Z,99716.05
2018-08-09T00:10:02.479Z,99720.34
2018-08-09T00:12:30.494Z,99725.07
2018-08-09T00:14:58.546Z,99731.05
2018-08-09T00:17:26.305Z,99727.11
2018-08-09T00:19:54.070Z,99731.47
2018-08-09T00:22:22.036Z,99730.81
2018-08-09T00:24:50.431Z,99729.92
2018-08-09T00:27:18.560Z,99729.17
2018-08-09T00:29:46.529Z,99731.70
2018-08-09T00:32:14.533Z,99727.75
2018-08-09T00:34:42.798Z,99733.31
2018-08-09T00:37:10.891Z,99730.13
2018-08-09T00:39:38.967Z,99732.70
2018-08-09T00:42:07.077Z,99733.95
2018-08-09T00:44:35.433Z,99733.53
2018-08-09T00:47:03.858Z,99728.88
2018-08-09T00:49:32.512Z,99733.92
2018-08-09T00:52:00.919Z,99728.83
2018-08-09T00:54:29.459Z,99723.81
2018-08-09T00:56:57.702Z,99725.52
2018-08-09T00:59:25.956Z,99722.47
2018-08-09T01:01:54.402Z,99720.58
2018-08-09T01:04:22.730Z,99721.63
2018-08-09T01:06:50.866Z,99726.52
2018-08-09T01:09:19.035Z,99728.19
2018-08-09T01:11:47.618Z,99730.02
2018-08-09T01:14:15.744Z,99734.03
2018-08-09T01:16:43.797Z,99732.59
2018-08-09T01:19:11.960Z,99736.72
2018-08-09T01:21:40.017Z,99735.30
2018-08-09T01:24:08.128Z,99737.43
2018-08-09T01:26:36.202Z,99733.33
2018-08-09T01:29:04.478Z,99726.95
2018-08-09T01:31:35.848Z,99721.88
2018-08-09T01:34:04.753Z,99727.86
2018-08-09T01:36:33.047Z,99744.85
2018-08-09T01:39:00.865Z,99743.13
2018-08-09T01:41:28.428Z,99739.73
2018-08-09T01:43:58.544Z,99740.70
2018-08-09T01:46:26.457Z,99736.56
2018-08-09T01:48:54.788Z,99742.06
2018-08-09T01:51:22.393Z,99742.72
2018-08-09T01:53:50.630Z,99751.47
2018-08-09T01:56:18.355Z,99755.55
2018-08-09T01:58:46.232Z,99757.84
2018-08-09T02:01:13.996Z,99756.40
2018-08-09T02:03:41.781Z,99754.45
2018-08-09T02:06:09.375Z,99749.23
2018-08-09T02:08:36.920Z,99750.98
2018-08-09T02:11:04.519Z,99748.19
2018-08-09T02:13:32.111Z,99749.47
2018-08-09T02:15:59.692Z,99748.38
2018-08-09T02:18:27.254Z,99748.16
2018-08-09T02:20:54.920Z,99749.59
2018-08-09T02:23:22.472Z,99755.96
2018-08-09T02:25:50.004Z,99758.05
2018-08-09T02:28:17.703Z,99758.69
2018-08-09T02:30:46.290Z,99763.45
2018-08-09T02:33:13.936Z,99763.44
2018-08-09T02:35:41.528Z,99754.91
2018-08-09T02:38:09.138Z,99756.20
2018-08-09T02:40:36.665Z,99755.46
2018-08-09T02:43:04.390Z,99765.12
2018-08-09T02:45:31.974Z,99758.45
2018-08-09T02:47:59.510Z,99767.63
2018-08-09T02:50:27.071Z,99765.21
2018-08-09T02:52:54.637Z,99763.57
2018-08-09T02:55:22.197Z,99768.12
2018-08-09T02:57:49.739Z,99765.26
2018-08-09T03:00:17.305Z,99761.05
2018-08-09T03:02:44.867Z,99766.61
2018-08-09T03:05:12.395Z,99768.47
2018-08-09T03:07:39.921Z,99768.24
2018-08-09T03:10:07.469Z,99772.62
2018-08-09T03:12:35.031Z,99778.26
2018-08-09T03:15:02.682Z,99773.78
2018-08-09T03:17:30.268Z,99779.69
2018-08-09T03:19:57.898Z,99777.98
2018-08-09T03:22:25.467Z,99774.03
2018-08-09T03:24:53.034Z,99785.38
2018-08-09T03:27:20.561Z,99789.95
2018-08-09T03:29:48.110Z,99790.14
2018-08-09T03:32:15.738Z,99790.58
2018-08-09T03:34:43.293Z,99792.86
2018-08-09T03:37:10.863Z,99794.71
2018-08-09T03:39:38.417Z,99798.22
2018-08-09T03:42:06.017Z,99797.92
2018-08-09T03:44:33.580Z,99800.45
2018-08-09T03:47:01.108Z,99806.50
2018-08-09T03:49:28.635Z,99806.65
2018-08-09T03:51:56.160Z,99808.83
2018-08-09T03:54:23.816Z,99803.61
2018-08-09T03:56:51.358Z,99802.77
2018-08-09T03:59:18.944Z,99804.92
2018-08-09T04:01:46.713Z,99802.46
2018-08-09T04:04:14.265Z,99805.33
2018-08-09T04:06:41.822Z,99808.11
2018-08-09T04:09:10.824Z,99808.06
2018-08-09T04:11:38.771Z,99811.14
2018-08-09T04:14:06.287Z,99812.97
2018-08-09T04:16:33.824Z,99811.20
2018-08-09T04:19:01.351Z,99805.46
2018-08-09T04:21:28.906Z,99811.45
2018-08-09T04:23:56.508Z,99806.48
2018-08-09T04:26:24.115Z,99805.00
2018-08-09T04:28:51.686Z,99807.99
2018-08-09T04:31:19.334Z,99812.84
2018-08-09T04:33:46.959Z,99806.92
2018-08-09T04:36:14.550Z,99815.86
2018-08-09T04:38:42.185Z,99815.78
2018-08-09T04:41:09.793Z,99809.08
2018-08-09T04:43:37.311Z,99811.84
2018-08-09T04:46:05.318Z,99815.86
2018-08-09T04:48:32.834Z,99821.38
2018-08-09T04:51:00.393Z,99819.31
2018-08-09T04:53:28.000Z,99821.14
2018-08-09T04:55:55.579Z,99813.10
2018-08-09T04:58:23.087Z,99815.98
2018-08-09T05:00:50.632Z,99818.55
2018-08-09T05:03:18.173Z,99817.89
2018-08-09T05:05:45.677Z,99815.10
2018-08-09T05:08:13.228Z,99820.75
2018-08-09T05:10:40.732Z,99825.10
2018-08-09T05:13:08.358Z,99825.48
2018-08-09T05:15:35.984Z,99825.84
2018-08-09T05:18:03.628Z,99827.20
2018-08-09T05:20:31.236Z,99825.66
2018-08-09T05:22:58.790Z,99832.30
2018-08-09T05:25:26.298Z,99819.95
2018-08-09T05:27:53.882Z,99818.18
2018-08-09T05:30:21.440Z,99820.21
2018-08-09T05:32:48.989Z,99806.40
2018-08-09T05:35:16.573Z,99813.11
2018-08-09T05:37:44.501Z,99810.64
2018-08-09T05:40:12.294Z,99817.69
2018-08-09T05:42:39.910Z,99820.78
2018-08-09T05:45:07.595Z,99819.73
2018-08-09T05:47:35.390Z,99824.60
2018-08-09T05:50:03.379Z,99824.27
2018-08-09T05:52:30.964Z,99821.54
2018-08-09T05:54:58.546Z,99825.92
2018-08-09T05:57:26.080Z,99823.52
2018-08-09T05:59:53.640Z,99818.68
2018-08-09T06:02:21.206Z,99823.19
2018-08-09T06:04:48.759Z,99825.02
2018-08-09T06:07:16.326Z,99820.39
2018-08-09T06:09:43.969Z,99823.84
2018-08-09T06:12:11.607Z,99832.93
2018-08-09T06:14:39.150Z,99828.31
2018-08-09T06:17:06.711Z,99830.70
2018-08-09T06:19:34.290Z,99833.52
2018-08-09T06:22:01.896Z,99830.72
2018-08-09T06:24:29.478Z,99832.31
2018-08-09T06:26:57.057Z,99832.64
2018-08-09T06:29:24.622Z,99836.03
2018-08-09T06:31:52.211Z,99835.00
2018-08-09T06:34:19.771Z,99825.48
2018-08-09T06:36:47.345Z,99822.62
2018-08-09T06:39:14.948Z,99818.41
2018-08-09T06:41:42.542Z,99816.55
2018-08-09T06:44:10.380Z,99816.52
2018-08-09T06:46:38.142Z,99819.87
2018-08-09T06:49:05.718Z,99819.42
2018-08-09T06:51:33.253Z,99822.82
2018-08-09T06:54:00.795Z,99828.36
2018-08-09T06:56:28.425Z,99829.62
2018-08-09T06:58:55.995Z,99833.60
2018-08-09T07:01:23.642Z,99842.28
2018-08-09T07:03:51.204Z,99834.86
2018-08-09T07:06:18.850Z,99830.31
2018-08-09T07:08:46.385Z,99827.17
2018-08-09T07:11:13.961Z,99833.52
2018-08-09T07:13:41.547Z,99829.33
2018-08-09T07:16:09.113Z,99832.78
2018-08-09T07:18:36.689Z,99839.44
2018-08-09T07:21:04.329Z,99836.03
2018-08-09T07:23:32.116Z,99844.28
2018-08-09T07:25:59.689Z,99842.55
2018-08-09T07:28:27.269Z,99839.27
2018-08-09T07:30:54.849Z,99832.16
2018-08-09T07:33:22.463Z,99833.67
2018-08-09T07:35:50.017Z,99833.32
2018-08-09T07:38:17.562Z,99835.13
2018-08-09T07:40:45.135Z,99838.48
2018-08-09T07:43:12.735Z,99837.08
2018-08-09T07:45:40.274Z,99839.60
2018-08-09T07:48:07.858Z,99840.37
2018-08-09T07:50:35.433Z,99837.41
2018-08-09T07:53:03.036Z,99838.98
2018-08-09T07:55:30.568Z,99827.03
2018-08-09T07:57:58.086Z,99828.83
2018-08-09T08:00:25.762Z,99832.77
2018-08-09T08:02:53.272Z,99826.52
2018-08-09T08:05:20.804Z,99825.39
2018-08-09T08:07:48.444Z,99823.06
2018-08-09T08:10:16.007Z,99819.17
2018-08-09T08:12:43.556Z,99820.40
2018-08-09T08:15:11.454Z,99812.72
2018-08-09T08:17:38.993Z,99814.91
2018-08-09T08:20:07.210Z,99809.05
2018-08-09T08:22:34.752Z,99810.97
2018-08-09T08:25:02.404Z,99814.96
2018-08-09T08:27:30.051Z,99818.13
2018-08-09T08:29:57.589Z,99808.83
2018-08-09T08:32:25.184Z,99808.91
2018-08-09T08:34:52.756Z,99812.33
2018-08-09T08:37:20.314Z,99806.52
2018-08-09T08:39:47.887Z,99800.94
2018-08-09T08:42:15.479Z,99801.49
2018-08-09T08:44:43.069Z,99805.39
2018-08-09T08:47:10.601Z,99801.78
2018-08-09T08:49:38.165Z,99801.34
2018-08-09T08:52:06.105Z,99795.64
2018-08-09T08:54:33.685Z,99789.16
2018-08-09T08:57:01.226Z,99788.59
2018-08-09T08:59:28.871Z,99783.64
2018-08-09T09:01:56.687Z,99787.36
2018-08-09T09:04:24.471Z,99781.06
2018-08-09T09:06:51.986Z,99777.11
2018-08-09T09:09:19.594Z,99771.13
2018-08-09T09:11:47.192Z,99772.97
2018-08-09T09:14:14.763Z,99771.72
2018-08-09T09:16:42.341Z,99762.20
2018-08-09T09:19:09.973Z,99763.41
2018-08-09T09:21:37.668Z,99768.11
2018-08-09T09:24:05.402Z,99757.27
2018-08-09T09:26:32.989Z,99755.48
2018-08-09T09:29:00.568Z,99756.74
2018-08-09T09:31:28.236Z,99751.17
2018-08-09T09:33:55.756Z,99750.01
2018-08-09T09:36:23.326Z,99744.94
2018-08-09T09:38:50.901Z,99737.96
2018-08-09T09:41:18.634Z,99737.72
2018-08-09T09:43:46.189Z,99733.83
2018-08-09T09:46:13.854Z,99737.23
2018-08-09T09:48:41.365Z,99736.03
2018-08-09T09:51:09.085Z,99733.95
2018-08-09T09:53:36.657Z,99726.67
2018-08-09T09:56:04.417Z,99724.18
2018-08-09T09:58:32.005Z,99722.79
2018-08-09T10:01:05.289Z,99715.58
2018-08-09T10:03:32.835Z,99713.11
2018-08-09T10:06:00.406Z,99709.99
2018-08-09T10:08:28.004Z,99706.77
2018-08-09T10:10:55.636Z,99697.08
2018-08-09T10:13:23.205Z,99688.94
2018-08-09T10:15:50.769Z,99686.34
2018-08-09T10:18:18.307Z,99683.64
2018-08-09T10:20:45.909Z,99672.84
2018-08-09T10:23:13.458Z,99663.36
2018-08-09T10:25:41.028Z,99657.44
2018-08-09T10:28:08.561Z,99662.06
2018-08-09T10:30:36.153Z,99664.80
2018-08-09T10:33:03.717Z,99656.41
2018-08-09T10:35:31.303Z,99656.95
2018-08-09T10:37:58.794Z,99646.38
2018-08-09T10:40:26.356Z,99650.72
2018-08-09T10:42:53.961Z,99649.11
2018-08-09T10:45:21.498Z,99650.23
2018-08-09T10:47:49.084Z,99641.52
2018-08-09T10:50:16.716Z,99638.00
2018-08-09T10:52:44.314Z,99631.48
2018-08-09T10:55:11.858Z,99628.50
2018-08-09T10:57:39.640Z,99625.52
2018-08-09T11:00:09.569Z,99619.81
2018-08-09T11:02:37.088Z,99615.74
2018-08-09T11:05:05.498Z,99608.94
2018-08-09T11:07:33.052Z,99606.21
2018-08-09T11:10:00.657Z,99605.09
2018-08-09T11:12:28.218Z,99587.98
2018-08-09T11:14:55.807Z,99590.91
2018-08-09T11:17:23.359Z,99595.27
2018-08-09T11:19:50.930Z,99592.01
2018-08-09T11:22:18.515Z,99590.63
2018-08-09T11:24:46.054Z,99584.02
2018-08-09T11:27:13.635Z,99582.02
2018-08-09T11:29:41.173Z,99587.73
2018-08-09T11:32:08.714Z,99582.53
2018-08-09T11:34:36.237Z,99578.99
2018-08-09T11:37:03.921Z,99569.15
2018-08-09T11:39:31.517Z,99567.62
2018-08-09T11:41:59.112Z,99568.37
2018-08-09T11:44:26.599Z,99569.46
2018-08-09T11:46:54.164Z,99562.01
2018-08-09T11:49:22.135Z,99559.87
2018-08-09T11:51:49.957Z,99555.95
2018-08-09T11:54:17.474Z,99550.43
2018-08-09T11:56:45.152Z,99551.47
2018-08-09T11:59:12.673Z,99550.81
2018-08-09T12:01:40.332Z,99550.16
2018-08-09T12:04:08.058Z,99543.96
2018-08-09T12:06:35.582Z,99544.25
2018-08-09T12:09:05.677Z,99546.02
2018-08-09T12:11:33.316Z,99535.87
2018-08-09T12:14:00.838Z,99532.55
2018-08-09T12:16:28.352Z,99527.06
2018-08-09T12:18:55.890Z,99521.89
2018-08-09T12:21:23.483Z,99520.27
2018-08-09T12:23:51.002Z,99509.95
2018-08-09T12:26:18.534Z,99515.94
2018-08-09T12:28:46.178Z,99509.55
2018-08-09T12:31:13.903Z,99511.00
2018-08-09T12:33:41.457Z,99502.90
2018-08-09T12:36:09.078Z,99501.73
2018-08-09T12:38:36.694Z,99499.27
2018-08-09T12:41:04.307Z,99499.40
2018-08-09T12:43:31.926Z,99492.80
2018-08-09T12:45:59.479Z,99479.89
2018-08-09T12:48:27.045Z,99475.88
2018-08-09T12:50:54.665Z,99478.34
2018-08-09T12:53:22.260Z,99467.61
2018-08-09T12:55:49.842Z,99464.80
2018-08-09T12:58:17.430Z,99463.77
2018-08-09T13:00:44.954Z,99459.11
2018-08-09T13:03:12.538Z,99459.11
2018-08-09T13:05:40.137Z,99461.20
2018-08-09T13:08:07.730Z,99454.11
2018-08-09T13:10:35.312Z,99446.02
2018-08-09T13:13:02.871Z,99448.26
2018-08-09T13:15:30.630Z,99443.55
2018-08-09T13:17:58.246Z,99438.68
2018-08-09T13:20:25.826Z,99434.85
2018-08-09T13:22:53.449Z,99434.86
2018-08-09T13:25:21.063Z,99431.94
2018-08-09T13:27:48.709Z,99421.77
2018-08-09T13:30:16.334Z,99428.23
2018-08-09T13:32:44.417Z,99422.73
2018-08-09T13:35:12.927Z,99419.28
2018-08-09T13:37:40.662Z,99415.94
2018-08-09T13:40:09.555Z,99410.55
2018-08-09T13:42:37.640Z,99409.08
2018-08-09T13:45:06.700Z,99411.61
2018-08-09T13:47:34.251Z,99408.43
2018-08-09T13:50:01.934Z,99400.26
2018-08-09T13:52:29.525Z,99393.83
2018-08-09T13:54:57.117Z,99396.31
2018-08-09T13:57:24.677Z,99394.13
2018-08-09T13:59:52.249Z,99386.87
2018-08-09T14:02:19.821Z,99383.89
2018-08-09T14:04:47.423Z,99384.41
2018-08-09T14:07:15.119Z,99373.89
2018-08-09T14:09:42.777Z,99379.67
2018-08-09T14:12:10.356Z,99382.18
2018-08-09T14:14:37.953Z,99369.07
2018-08-09T14:17:05.571Z,99373.20
2018-08-09T14:19:33.093Z,99361.64
2018-08-09T14:22:00.728Z,99365.02
2018-08-09T14:24:28.356Z,99365.72
2018-08-09T14:26:55.960Z,99362.08
2018-08-09T14:29:23.512Z,99365.34
2018-08-09T14:31:51.255Z,99365.55
2018-08-09T14:34:18.797Z,99354.24
2018-08-09T14:36:46.322Z,99354.53
2018-08-09T14:39:13.993Z,99360.10
2018-08-09T14:41:42.239Z,99356.97
2018-08-09T14:44:09.790Z,99365.42
2018-08-09T14:46:37.385Z,99336.47
2018-08-09T14:49:05.438Z,99347.98
2018-08-09T14:51:33.056Z,99339.95
2018-08-09T14:54:00.648Z,99335.83
2018-08-09T14:56:28.372Z,99331.93
2018-08-09T14:58:56.062Z,99334.95
2018-08-09T15:01:23.672Z,99327.60
2018-08-09T15:03:51.325Z,99329.45
2018-08-09T15:06:18.917Z,99328.00
2018-08-09T15:08:46.677Z,99322.09
2018-08-09T15:11:14.270Z,99319.95
2018-08-09T15:13:41.887Z,99311.94
2018-08-09T15:16:10.018Z,99306.38
2018-08-09T15:18:37.719Z,99309.66
2018-08-09T15:21:05.359Z,99307.23
2018-08-09T15:23:32.992Z,99309.31
2018-08-09T15:26:00.557Z,99310.66
2018-08-09T15:28:28.177Z,99310.52
2018-08-09T15:30:55.835Z,99303.67
2018-08-09T15:33:23.329Z,99305.83
2018-08-09T15:35:50.876Z,99297.18
2018-08-09T15:38:18.714Z,99296.20
2018-08-09T15:40:46.362Z,99294.07
2018-08-09T15:43:13.979Z,99301.61
2018-08-09T15:45:41.594Z,99305.19
2018-08-09T15:48:09.165Z,99304.23
2018-08-09T15:50:36.681Z,99298.23
2018-08-09T15:53:04.556Z,99295.38
2018-08-09T15:55:32.172Z,99285.64
2018-08-09T15:57:59.770Z,99289.83
2018-08-09T16:00:27.406Z,99288.07
2018-08-09T16:02:54.990Z,99293.75
2018-08-09T16:05:22.614Z,99299.79
2018-08-09T16:07:50.213Z,99299.11
2018-08-09T16:10:18.085Z,99304.19
2018-08-09T16:12:46.473Z,99294.30
2018-08-09T16:15:15.601Z,99284.02
2018-08-09T16:17:44.270Z,99280.63
2018-08-09T16:20:12.141Z,99283.72
2018-08-09T16:22:40.314Z,99279.69
2018-08-09T16:25:11.002Z,99276.74
2018-08-09T16:27:38.814Z,99283.27
2018-08-09T16:30:14.417Z,99275.15
2018-08-09T16:32:42.549Z,99268.75
2018-08-09T16:35:10.971Z,99269.89
2018-08-09T16:37:39.106Z,99267.03
2018-08-09T16:40:08.832Z,99258.00
2018-08-09T16:42:36.459Z,99251.25
2018-08-09T16:45:05.149Z,99257.55
2018-08-09T16:47:32.741Z,99256.98
2018-08-09T16:50:00.469Z,99261.36
2018-08-09T16:52:28.081Z,99254.41
2018-08-09T16:54:55.683Z,99253.83
2018-08-09T16:57:23.313Z,99252.66
2018-08-09T16:59:50.881Z,99251.72
2018-08-09T17:02:18.431Z,99243.28
2018-08-09T17:04:46.363Z,99237.71
2018-08-09T17:07:14.024Z,99243.30
2018-08-09T17:12:24.435Z,99243.95
2018-08-09T17:14:52.205Z,99236.66
2018-08-09T17:17:20.083Z,99239.41
2018-08-09T17:19:47.794Z,99234.60
2018-08-09T17:22:15.678Z,99235.59
2018-08-09T17:24:43.322Z,99230.17
2018-08-09T17:27:10.941Z,99232.36
2018-08-09T17:29:38.673Z,99228.91
2018-08-09T17:32:06.698Z,99229.38
2018-08-09T17:34:34.322Z,99218.06
2018-08-09T17:37:02.042Z,99223.63
2018-08-09T17:39:29.772Z,99212.11
2018-08-09T17:41:57.464Z,99218.55
2018-08-09T17:44:25.256Z,99216.94
2018-08-09T17:46:52.995Z,99215.98
2018-08-09T17:49:20.772Z,99218.17
2018-08-09T17:51:48.450Z,99213.34
2018-08-09T17:54:16.184Z,99219.60
2018-08-09T17:56:43.911Z,99213.20
2018-08-09T17:59:11.521Z,99220.27
2018-08-09T18:01:39.255Z,99216.98
2018-08-09T18:04:07.079Z,99213.56
2018-08-09T18:06:35.956Z,99206.66
2018-08-09T18:09:07.298Z,99208.13
2018-08-09T18:11:34.935Z,99201.30
2018-08-09T18:14:02.592Z,99203.07
2018-08-09T18:16:30.298Z,99202.11
2018-08-09T18:18:58.000Z,99199.59
2018-08-09T18:21:25.677Z,99187.06
2018-08-09T18:23:53.321Z,99203.42
2018-08-09T18:26:20.937Z,99204.81
2018-08-09T18:28:48.501Z,99199.30
2018-08-09T18:31:16.114Z,99197.66
2018-08-09T18:33:43.712Z,99196.23
2018-08-09T18:36:11.533Z,99196.88
2018-08-09T18:38:39.277Z,99193.03
2018-08-09T18:41:06.927Z,99192.25
2018-08-09T18:43:35.597Z,99196.84
2018-08-09T18:46:03.265Z,99193.50
2018-08-09T18:48:30.855Z,99197.45
2018-08-09T18:50:59.535Z,99204.38
2018-08-09T18:53:58.917Z,99206.89
2018-08-09T18:56:26.830Z,99214.65
2018-08-09T18:58:54.617Z,99213.64
2018-08-09T19:01:22.257Z,99220.18
2018-08-09T19:03:50.104Z,99227.23
2018-08-09T19:06:17.755Z,99220.23
2018-08-09T19:08:45.367Z,99218.91
2018-08-09T19:11:12.903Z,99224.85
2018-08-09T19:13:40.535Z,99225.97
2018-08-09T19:16:08.187Z,99220.34
2018-08-09T19:18:35.789Z,99220.41
2018-08-09T19:21:03.457Z,99215.86
2018-08-09T19:23:31.103Z,99211.59
2018-08-09T19:25:59.020Z,99216.81
2018-08-09T19:28:26.615Z,99216.80
2018-08-09T19:30:54.203Z,99223.31
2018-08-09T19:33:22.429Z,99222.78
2018-08-09T19:35:50.156Z,99227.95
2018-08-09T19:38:17.818Z,99229.59
2018-08-09T19:40:45.425Z,99239.66
2018-08-09T19:43:13.022Z,99241.30
2018-08-09T19:45:41.590Z,99246.97
2018-08-09T19:48:09.396Z,99254.56
2018-08-09T19:50:37.058Z,99259.14
2018-08-09T19:53:05.155Z,99254.25
2018-08-09T19:55:32.816Z,99282.38
2018-08-09T19:58:01.572Z,99345.21
2018-08-09T20:00:30.189Z,99367.53
2018-08-09T20:02:57.857Z,99368.22
2018-08-09T20:05:25.682Z,99376.84
2018-08-09T20:07:53.520Z,99375.74
2018-08-09T20:10:21.147Z,99375.56
2018-08-09T20:12:49.042Z,99383.02
2018-08-09T20:15:19.386Z,99387.09
2018-08-09T20:17:47.131Z,99403.51
2018-08-09T20:20:16.218Z,99417.44
2018-08-09T20:22:44.063Z,99427.36
2018-08-09T20:25:12.572Z,99442.95
2018-08-09T20:27:40.640Z,99450.38
2018-08-09T20:30:11.094Z,99457.48
2018-08-09T20:32:39.828Z,99471.88
2018-08-09T20:35:10.353Z,99479.80
2018-08-09T20:37:38.273Z,99478.34
2018-08-09T20:40:07.523Z,99479.36
2018-08-09T20:42:35.392Z,99478.44
2018-08-09T20:45:03.419Z,99481.92
2018-08-09T20:47:31.560Z,99492.34
2018-08-09T20:49:59.423Z,99493.58
2018-08-09T20:52:27.022Z,99490.23
2018-08-09T20:54:56.497Z,99491.90
2018-08-09T20:57:24.153Z,99496.41
2018-08-09T20:59:51.917Z,99508.96
2018-08-09T21:02:19.567Z,99509.81
2018-08-09T21:04:47.333Z,99496.77
2018-08-09T21:07:14.961Z,99499.77
2018-08-09T21:09:42.589Z,99509.01
2018-08-09T21:12:10.184Z,99514.34
2018-08-09T21:14:37.826Z,99518.55
2018-08-09T21:17:05.433Z,99516.55
2018-08-09T21:19:33.168Z,99517.30
2018-08-09T21:22:01.223Z,99527.65
2018-08-09T21:24:28.935Z,99532.57
2018-08-09T21:26:56.506Z,99541.64
2018-08-09T21:29:24.202Z,99543.02
2018-08-09T21:31:51.942Z,99552.17
2018-08-09T21:34:19.538Z,99556.66
2018-08-09T21:36:47.073Z,99570.91
2018-08-09T21:39:14.711Z,99577.75
2018-08-09T21:41:42.371Z,99575.75
2018-08-09T21:44:09.982Z,99583.91
2018-08-09T21:46:37.569Z,99591.98
2018-08-09T21:49:05.527Z,99594.52
2018-08-09T21:51:33.158Z,99599.36
2018-08-09T21:54:00.787Z,99606.70
2018-08-09T21:56:28.325Z,99606.19
2018-08-09T21:58:55.855Z,99613.63
2018-08-09T22:01:23.503Z,99608.36
2018-08-09T22:03:51.149Z,99632.75
2018-08-09T22:06:24.370Z,99634.22
2018-08-09T22:08:57.868Z,99637.22
2018-08-09T22:11:31.243Z,99644.13
2018-08-09T22:14:04.534Z,99655.08
2018-08-09T22:16:37.967Z,99660.14
2018-08-09T22:19:11.487Z,99660.23
2018-08-09T22:21:44.758Z,99658.13
2018-08-09T22:24:12.422Z,99659.38
2018-08-09T22:26:40.054Z,99663.03
2018-08-09T22:29:07.693Z,99671.20
2018-08-09T22:31:35.291Z,99671.16
2018-08-09T22:34:02.983Z,99679.19
2018-08-09T22:36:30.581Z,99681.63
2018-08-09T22:38:58.237Z,99675.66
2018-08-09T22:41:25.841Z,99681.57
2018-08-09T22:43:53.441Z,99692.20
2018-08-09T22:46:21.109Z,99697.19
2018-08-09T22:48:48.701Z,99701.23
2018-08-09T22:51:16.348Z,99698.63
2018-08-09T22:53:43.913Z,99697.72
2018-08-09T22:56:11.528Z,99702.19
2018-08-09T22:58:39.160Z,99701.76
2018-08-09T23:01:06.765Z,99696.72
2018-08-09T23:03:34.382Z,99707.05
2018-08-09T23:06:01.985Z,99703.53
2018-08-09T23:08:29.527Z,99711.44
2018-08-09T23:10:57.240Z,99715.50
2018-08-09T23:13:24.814Z,99718.42
2018-08-09T23:15:52.438Z,99721.70
2018-08-09T23:18:20.011Z,99728.98
2018-08-09T23:20:47.624Z,99731.77
2018-08-09T23:23:15.210Z,99734.98
2018-08-09T23:25:42.784Z,99726.82
2018-08-09T23:28:10.377Z,99728.41
2018-08-09T23:30:37.932Z,99734.84
2018-08-09T23:33:05.570Z,99743.13
2018-08-09T23:35:33.253Z,99744.38
2018-08-09T23:38:00.838Z,99750.95
2018-08-09T23:40:28.406Z,99744.66
2018-08-09T23:42:55.950Z,99744.60
2018-08-09T23:45:23.580Z,99746.75
2018-08-09T23:47:51.157Z,99746.66
2018-08-09T23:50:18.777Z,99751.83
2018-08-09T23:52:46.407Z,99748.80
2018-08-09T23:55:15.472Z,99748.28
2018-08-09T23:57:43.278Z,99753.27
